createdAt,value
2022-12-03T00:00:58.776Z,6.80
2022-12-03T00:03:30.729Z,6.70
2022-12-03T00:06:01.429Z,6.90
2022-12-03T00:08:32.165Z,6.60
2022-12-03T00:11:02.963Z,7.80
2022-12-03T00:13:33.723Z,5.70
2022-12-03T00:16:04.522Z,6.50
2022-12-03T00:18:35.283Z,7.10
2022-12-03T00:21:06.768Z,7.40
2022-12-03T00:23:42.095Z,6.90
2022-12-03T00:26:13.116Z,6.70
2022-12-03T00:28:43.799Z,7.60
2022-12-03T00:31:14.523Z,7.30
2022-12-03T00:33:45.306Z,6.60
2022-12-03T00:36:16.048Z,7.60
2022-12-03T00:38:46.752Z,6.60
2022-12-03T00:41:17.488Z,6.70
2022-12-03T00:43:48.471Z,8.20
2022-12-03T00:46:21.589Z,6.30
2022-12-03T00:48:52.772Z,5.90
2022-12-03T00:51:23.509Z,7.50
2022-12-03T00:53:54.354Z,6.50
2022-12-03T00:56:25.029Z,6.60
2022-12-03T00:58:55.826Z,6.00
2022-12-03T01:01:26.890Z,7.10
2022-12-03T01:03:57.753Z,6.20
2022-12-03T01:06:28.550Z,7.20
2022-12-03T01:08:59.287Z,5.70
2022-12-03T01:11:39.337Z,5.80
2022-12-03T01:14:11.446Z,6.30
2022-12-03T01:16:43.062Z,5.00
2022-12-03T01:19:16.184Z,6.10
2022-12-03T01:21:48.532Z,5.60
2022-12-03T01:24:20.521Z,6.80
2022-12-03T01:26:51.235Z,7.20
2022-12-03T01:29:21.843Z,6.50
2022-12-03T01:32:10.210Z,6.40
2022-12-03T01:34:40.946Z,6.40
2022-12-03T01:37:11.788Z,6.00
2022-12-03T01:39:42.610Z,6.20
2022-12-03T01:42:17.459Z,6.40
2022-12-03T01:44:49.120Z,6.60
2022-12-03T01:47:22.105Z,6.80
2022-12-03T01:49:56.517Z,6.50
2022-12-03T01:52:29.528Z,6.20
2022-12-03T01:55:03.127Z,5.80
2022-12-03T01:57:41.086Z,6.00
2022-12-03T02:00:16.594Z,6.00
2022-12-03T02:02:48.228Z,6.90
2022-12-03T02:05:21.674Z,5.70
2022-12-03T02:07:52.655Z,5.50
2022-12-03T02:10:27.639Z,6.40
2022-12-03T02:13:02.367Z,5.10
2022-12-03T02:15:33.579Z,6.30
2022-12-03T02:18:05.046Z,6.00
2022-12-03T02:20:43.794Z,5.60
2022-12-03T02:23:22.656Z,6.20
2022-12-03T02:25:53.570Z,5.70
2022-12-03T02:28:24.538Z,6.20
2022-12-03T02:30:55.281Z,6.30
2022-12-03T02:33:26.042Z,5.20
2022-12-03T02:36:01.918Z,6.90
2022-12-03T02:38:35.705Z,5.40
2022-12-03T02:41:09.760Z,6.20
2022-12-03T02:43:40.863Z,5.90
2022-12-03T02:46:11.591Z,5.00
2022-12-03T02:48:43.214Z,5.50
2022-12-03T02:51:14.405Z,5.30
2022-12-03T02:53:47.500Z,5.60
2022-12-03T02:56:22.270Z,6.60
2022-12-03T02:58:57.876Z,5.40
2022-12-03T03:01:29.309Z,5.70
2022-12-03T03:04:00.744Z,5.90
2022-12-03T03:06:32.138Z,6.30
2022-12-03T03:09:03.590Z,6.10
2022-12-03T03:11:34.522Z,5.30
2022-12-03T03:14:05.647Z,4.90
2022-12-03T03:16:38.001Z,5.40
2022-12-03T03:19:09.465Z,5.00
2022-12-03T03:21:40.291Z,5.70
2022-12-03T03:24:11.705Z,4.50
2022-12-03T03:26:42.459Z,6.30
2022-12-03T03:29:13.485Z,5.50
2022-12-03T03:31:45.930Z,5.50
2022-12-03T03:34:17.531Z,4.50
2022-12-03T03:36:48.834Z,6.90
2022-12-03T03:39:19.596Z,5.00
2022-12-03T03:41:51.024Z,5.60
2022-12-03T03:44:21.864Z,5.20
2022-12-03T03:46:53.101Z,5.20
2022-12-03T03:49:24.538Z,5.60
2022-12-03T03:51:55.745Z,5.70
2022-12-03T03:54:26.669Z,5.40
2022-12-03T03:56:57.502Z,4.40
2022-12-03T03:59:28.181Z,4.50
2022-12-03T04:01:58.913Z,5.40
2022-12-03T04:04:37.957Z,4.10
2022-12-03T04:07:08.762Z,5.20
2022-12-03T04:09:39.396Z,5.00
2022-12-03T04:12:28.350Z,4.50
2022-12-03T04:14:59.389Z,4.10
2022-12-03T04:17:30.646Z,4.80
2022-12-03T04:20:01.297Z,4.80
2022-12-03T04:22:40.999Z,5.00
2022-12-03T04:25:30.742Z,5.20
2022-12-03T04:28:19.081Z,5.00
2022-12-03T04:30:49.733Z,5.00
2022-12-03T04:33:38.229Z,5.50
2022-12-03T04:36:09.643Z,4.10
2022-12-03T04:38:40.275Z,4.40
2022-12-03T04:41:11.071Z,4.90
2022-12-03T04:43:55.704Z,4.60
2022-12-03T04:46:26.414Z,5.30
2022-12-03T04:48:57.116Z,4.60
2022-12-03T04:51:27.993Z,4.90
2022-12-03T04:53:58.635Z,4.80
2022-12-03T04:56:29.291Z,4.00
2022-12-03T04:58:59.925Z,4.10
2022-12-03T05:01:30.933Z,4.70
2022-12-03T05:04:01.788Z,5.40
2022-12-03T05:06:33.589Z,4.80
2022-12-03T05:09:04.515Z,3.90
2022-12-03T05:11:35.332Z,4.60
2022-12-03T05:14:06.215Z,5.50
2022-12-03T05:16:37.171Z,5.00
2022-12-03T05:19:10.007Z,4.40
2022-12-03T05:21:40.721Z,4.50
2022-12-03T05:24:11.591Z,4.80
2022-12-03T05:26:42.645Z,4.90
2022-12-03T05:29:13.381Z,4.60
2022-12-03T05:31:44.018Z,4.40
2022-12-03T05:34:14.700Z,4.00
2022-12-03T05:36:45.494Z,3.70
2022-12-03T05:39:16.337Z,3.90
2022-12-03T05:42:04.982Z,3.90
2022-12-03T05:44:35.615Z,4.20
2022-12-03T05:47:06.350Z,4.30
2022-12-03T05:49:37.016Z,4.60
2022-12-03T05:52:07.886Z,3.90
2022-12-03T05:54:38.529Z,4.40
2022-12-03T05:57:09.405Z,6.10
2022-12-03T05:59:40.181Z,3.70
2022-12-03T06:02:10.831Z,4.50
2022-12-03T06:04:41.635Z,4.90
2022-12-03T06:07:14.093Z,4.70
2022-12-03T06:09:45.142Z,5.00
2022-12-03T06:12:15.799Z,4.20
2022-12-03T06:14:46.726Z,4.40
2022-12-03T06:17:17.562Z,4.90
2022-12-03T06:19:48.521Z,4.40
2022-12-03T06:22:19.478Z,4.30
2022-12-03T06:24:50.733Z,3.80
2022-12-03T06:27:21.844Z,4.20
2022-12-03T06:29:52.580Z,4.30
2022-12-03T06:32:23.417Z,4.20
2022-12-03T06:34:54.535Z,6.80
2022-12-03T06:37:25.767Z,4.40
2022-12-03T06:39:56.656Z,4.10
2022-12-03T06:42:27.460Z,4.80
2022-12-03T06:44:58.134Z,4.60
2022-12-03T06:47:28.815Z,3.90
2022-12-03T06:49:59.713Z,4.60
2022-12-03T06:52:30.449Z,4.20
2022-12-03T06:55:01.390Z,4.20
2022-12-03T06:57:32.264Z,4.00
2022-12-03T07:00:03.589Z,4.10
2022-12-03T07:02:34.454Z,3.80
2022-12-03T07:05:05.812Z,3.80
2022-12-03T07:07:36.786Z,4.10
2022-12-03T07:10:09.442Z,4.00
2022-12-03T07:12:40.082Z,4.00
2022-12-03T07:15:12.413Z,3.90
2022-12-03T07:17:43.522Z,3.90
2022-12-03T07:20:16.327Z,4.40
2022-12-03T07:22:47.181Z,3.60
2022-12-03T07:25:22.920Z,3.60
2022-12-03T07:27:54.491Z,3.60
2022-12-03T07:30:25.812Z,4.10
2022-12-03T07:32:56.583Z,5.80
2022-12-03T07:35:27.465Z,4.40
2022-12-03T07:37:58.157Z,4.40
2022-12-03T07:40:28.923Z,3.40
2022-12-03T07:42:59.719Z,3.80
2022-12-03T07:45:30.473Z,3.80
2022-12-03T07:48:01.183Z,4.00
2022-12-03T07:50:31.925Z,4.00
2022-12-03T07:53:02.686Z,4.40
2022-12-03T07:55:33.354Z,4.60
2022-12-03T07:58:04.028Z,4.10
2022-12-03T08:00:34.856Z,3.60
2022-12-03T08:03:05.743Z,3.70
2022-12-03T08:05:36.731Z,3.70
2022-12-03T08:08:07.970Z,3.90
2022-12-03T08:10:38.998Z,3.50
2022-12-03T08:13:14.772Z,6.50
2022-12-03T08:15:46.484Z,3.90
2022-12-03T08:18:20.732Z,2.90
2022-12-03T08:20:53.019Z,4.70
2022-12-03T08:23:27.055Z,3.80
2022-12-03T08:26:05.201Z,3.60
2022-12-03T08:28:36.917Z,3.30
2022-12-03T08:31:20.015Z,3.70
2022-12-03T08:33:52.978Z,3.10
2022-12-03T08:36:25.554Z,3.00
2022-12-03T08:39:00.116Z,3.90
2022-12-03T08:41:49.716Z,3.60
2022-12-03T08:44:27.550Z,3.20
2022-12-03T08:47:07.698Z,5.10
2022-12-03T08:49:38.724Z,3.70
2022-12-03T08:52:16.471Z,3.70
2022-12-03T08:54:52.981Z,4.30
2022-12-03T08:57:29.561Z,3.60
2022-12-03T09:00:03.693Z,3.50
2022-12-03T09:02:36.922Z,3.70
2022-12-03T09:05:17.300Z,4.00
2022-12-03T09:07:48.370Z,2.80
2022-12-03T09:10:19.288Z,3.40
2022-12-03T09:12:50.167Z,5.00
2022-12-03T09:15:20.969Z,4.80
2022-12-03T09:17:51.932Z,4.20
2022-12-03T09:20:23.132Z,4.30
2022-12-03T09:22:53.949Z,3.50
2022-12-03T09:25:24.592Z,3.20
2022-12-03T09:27:55.509Z,2.60
2022-12-03T09:30:26.363Z,2.80
2022-12-03T09:32:57.176Z,3.40
2022-12-03T09:35:27.892Z,3.00
2022-12-03T09:37:58.781Z,3.30
2022-12-03T09:40:29.977Z,3.00
2022-12-03T09:43:01.061Z,2.30
2022-12-03T09:45:31.893Z,2.80
2022-12-03T09:48:04.895Z,3.50
2022-12-03T09:50:39.739Z,3.40
2022-12-03T09:53:15.654Z,4.10
2022-12-03T09:55:49.871Z,2.50
2022-12-03T09:58:23.206Z,3.00
2022-12-03T10:00:54.506Z,2.90
2022-12-03T10:03:31.383Z,4.10
2022-12-03T10:06:02.281Z,2.80
2022-12-03T10:08:33.937Z,2.90
2022-12-03T10:11:04.712Z,2.70
2022-12-03T10:13:37.403Z,2.50
2022-12-03T10:16:13.353Z,2.70
2022-12-03T10:18:47.325Z,3.40
2022-12-03T10:21:24.345Z,2.30
2022-12-03T10:24:20.530Z,2.80
2022-12-03T10:26:52.718Z,2.60
2022-12-03T10:29:31.575Z,3.50
2022-12-03T10:32:06.562Z,2.90
2022-12-03T10:34:39.368Z,3.90
2022-12-03T10:37:16.055Z,3.30
2022-12-03T10:39:59.473Z,3.10
2022-12-03T10:42:32.638Z,3.20
2022-12-03T10:45:18.038Z,2.60
2022-12-03T10:48:05.180Z,4.60
2022-12-03T10:50:36.928Z,2.90
2022-12-03T10:53:09.983Z,3.40
2022-12-03T10:55:45.697Z,3.10
2022-12-03T10:58:22.879Z,2.70
2022-12-03T11:00:56.159Z,3.40
2022-12-03T11:03:28.988Z,2.50
2022-12-03T11:06:01.518Z,2.70
2022-12-03T11:08:35.448Z,3.70
2022-12-03T11:11:08.255Z,2.50
2022-12-03T11:13:51.740Z,2.60
2022-12-03T11:17:02.646Z,3.00
2022-12-03T11:19:52.031Z,3.20
2022-12-03T11:22:43.571Z,5.00
2022-12-03T11:25:50.576Z,3.90
2022-12-03T11:28:49.055Z,2.50
2022-12-03T11:31:37.798Z,4.30
2022-12-03T11:34:51.115Z,2.70
2022-12-03T11:37:31.581Z,3.00
2022-12-03T11:40:30.048Z,2.80
2022-12-03T11:43:05.819Z,2.60
2022-12-03T11:45:39.459Z,3.00
2022-12-03T11:48:18.889Z,3.20
2022-12-03T11:50:54.408Z,2.70
2022-12-03T11:53:27.525Z,3.00
2022-12-03T11:56:09.198Z,2.30
2022-12-03T11:58:43.569Z,3.20
2022-12-03T12:01:15.403Z,2.70
2022-12-03T12:03:48.354Z,2.80
2022-12-03T12:06:21.197Z,2.90
2022-12-03T12:09:00.439Z,3.90
2022-12-03T12:11:33.242Z,2.70
2022-12-03T12:14:05.410Z,2.80
2022-12-03T12:16:58.493Z,2.40
2022-12-03T12:19:37.798Z,4.50
2022-12-03T12:22:21.067Z,2.80
2022-12-03T12:24:54.334Z,3.40
2022-12-03T12:27:32.119Z,3.80
2022-12-03T12:30:06.073Z,2.90
2022-12-03T12:32:43.306Z,2.70
2022-12-03T12:35:19.991Z,2.70
2022-12-03T12:37:58.957Z,3.20
2022-12-03T12:40:34.102Z,2.80
2022-12-03T12:43:13.528Z,2.50
2022-12-03T12:45:47.491Z,3.20
2022-12-03T12:48:25.029Z,3.40
2022-12-03T12:51:01.640Z,4.40
2022-12-03T12:53:34.712Z,2.80
2022-12-03T12:56:14.583Z,2.90
2022-12-03T12:58:45.661Z,3.20
2022-12-03T13:01:22.323Z,3.20
2022-12-03T13:03:55.256Z,3.10
2022-12-03T13:06:29.491Z,3.40
2022-12-03T13:09:01.364Z,2.90
2022-12-03T13:11:41.465Z,2.40
2022-12-03T13:14:19.343Z,3.20
2022-12-03T13:16:52.103Z,2.90
2022-12-03T13:19:27.836Z,3.30
2022-12-03T13:22:01.447Z,3.00
2022-12-03T13:24:38.172Z,3.10
2022-12-03T13:27:29.594Z,2.90
2022-12-03T13:30:04.481Z,2.50
2022-12-03T13:32:37.869Z,3.50
2022-12-03T13:35:17.695Z,2.80
2022-12-03T13:40:27.374Z,2.60
2022-12-03T13:42:58.507Z,2.80
2022-12-03T13:45:36.803Z,2.20
2022-12-03T13:48:24.992Z,2.90
2022-12-03T13:50:56.450Z,2.90
2022-12-03T13:53:29.407Z,2.80
2022-12-03T13:56:23.403Z,3.50
2022-12-03T13:58:54.377Z,3.10
2022-12-03T14:01:25.424Z,2.40
2022-12-03T14:03:56.439Z,3.10
2022-12-03T14:06:27.486Z,2.70
2022-12-03T14:08:58.524Z,2.60
2022-12-03T14:11:47.077Z,4.70
2022-12-03T14:14:18.063Z,3.00
2022-12-03T14:16:49.399Z,3.10
2022-12-03T14:19:20.338Z,2.80
2022-12-03T14:21:51.246Z,2.60
2022-12-03T14:24:22.029Z,2.60
2022-12-03T14:26:52.833Z,3.00
2022-12-03T14:29:23.973Z,3.00
2022-12-03T14:31:55.049Z,3.70
2022-12-03T14:34:26.056Z,4.00
2022-12-03T14:36:57.009Z,3.20
2022-12-03T14:39:28.882Z,2.70
2022-12-03T14:42:15.581Z,2.80
2022-12-03T14:44:48.683Z,2.70
2022-12-03T14:47:22.939Z,2.50
2022-12-03T14:49:54.588Z,3.20
2022-12-03T14:52:25.583Z,2.50
2022-12-03T14:54:56.444Z,2.70
2022-12-03T14:57:27.787Z,3.40
2022-12-03T14:59:58.939Z,3.70
2022-12-03T15:02:32.884Z,2.90
2022-12-03T15:05:03.988Z,3.90
2022-12-03T15:07:35.177Z,4.30
2022-12-03T15:10:07.601Z,3.70
2022-12-03T15:12:38.356Z,4.10
2022-12-03T15:15:12.521Z,5.00
2022-12-03T15:17:47.439Z,5.70
2022-12-03T15:20:18.655Z,3.40
2022-12-03T15:22:49.793Z,4.30
2022-12-03T15:25:24.563Z,3.30
2022-12-03T15:27:55.356Z,4.30
2022-12-03T15:30:26.433Z,4.10
2022-12-03T15:32:57.448Z,3.80
2022-12-03T15:35:30.788Z,3.20
2022-12-03T15:38:01.791Z,3.20
2022-12-03T15:40:33.111Z,3.70
2022-12-03T15:43:04.083Z,2.90
2022-12-03T15:45:35.041Z,3.10
2022-12-03T15:48:06.969Z,4.50
2022-12-03T15:50:40.319Z,3.70
2022-12-03T15:55:41.052Z,3.80
2022-12-03T15:58:12.075Z,4.00
2022-12-03T16:00:45.191Z,3.90
2022-12-03T16:03:16.208Z,3.70
2022-12-03T16:05:48.610Z,2.40
2022-12-03T16:08:19.512Z,3.90
2022-12-03T16:10:50.492Z,3.10
2022-12-03T16:13:21.337Z,3.60
2022-12-03T16:15:52.536Z,3.30
2022-12-03T16:18:23.637Z,4.20
2022-12-03T16:20:54.322Z,3.00
2022-12-03T16:23:25.225Z,2.90
2022-12-03T16:25:58.427Z,4.20
2022-12-03T16:28:29.351Z,4.40
2022-12-03T16:31:00.230Z,4.00
2022-12-03T16:33:31.235Z,3.40
2022-12-03T16:36:02.096Z,3.30
2022-12-03T16:38:33.763Z,3.70
2022-12-03T16:41:05.100Z,2.80
2022-12-03T16:43:38.733Z,4.30
2022-12-03T16:46:26.846Z,3.10
2022-12-03T16:48:59.062Z,2.40
2022-12-03T16:51:31.408Z,4.00
2022-12-03T16:54:02.143Z,3.30
2022-12-03T16:56:33.049Z,3.80
2022-12-03T16:59:03.983Z,3.40
2022-12-03T17:01:35.121Z,3.70
2022-12-03T17:04:06.179Z,4.50
2022-12-03T17:06:37.139Z,3.70
2022-12-03T17:09:07.928Z,2.90
2022-12-03T17:11:38.902Z,4.70
2022-12-03T17:14:09.741Z,3.70
2022-12-03T17:16:40.581Z,4.60
2022-12-03T17:19:11.509Z,5.40
2022-12-03T17:21:42.281Z,4.50
2022-12-03T17:24:13.203Z,4.00
2022-12-03T17:26:44.810Z,4.30
2022-12-03T17:29:15.601Z,5.00
2022-12-03T17:31:46.665Z,4.90
2022-12-03T17:34:17.473Z,4.40
2022-12-03T17:36:48.536Z,4.60
2022-12-03T17:39:19.451Z,4.20
2022-12-03T17:41:50.456Z,5.20
2022-12-03T17:44:21.588Z,4.20
2022-12-03T17:46:52.493Z,4.50
2022-12-03T17:49:26.970Z,3.90
2022-12-03T17:52:02.202Z,4.70
2022-12-03T17:54:55.276Z,4.60
2022-12-03T17:57:24.852Z,5.30
2022-12-03T17:59:56.108Z,3.90
2022-12-03T18:02:27.454Z,5.20
2022-12-03T18:04:58.380Z,4.90
2022-12-03T18:07:29.405Z,3.80
2022-12-03T18:10:00.360Z,6.60
2022-12-03T18:12:31.417Z,4.10
2022-12-03T18:15:02.347Z,5.50
2022-12-03T18:17:33.397Z,3.70
2022-12-03T18:20:04.881Z,4.20
2022-12-03T18:22:35.928Z,4.20
2022-12-03T18:25:08.200Z,4.20
2022-12-03T18:27:39.592Z,5.00
2022-12-03T18:30:12.259Z,4.80
2022-12-03T18:32:43.144Z,4.00
2022-12-03T18:35:14.015Z,5.00
2022-12-03T18:37:44.929Z,4.00
2022-12-03T18:40:22.937Z,5.00
2022-12-03T18:42:54.054Z,3.70
2022-12-03T18:45:24.983Z,5.20
2022-12-03T18:47:56.126Z,3.70
2022-12-03T18:50:29.057Z,5.80
2022-12-03T18:52:59.896Z,4.60
2022-12-03T18:55:34.538Z,6.40
2022-12-03T18:58:05.472Z,4.00
2022-12-03T19:00:36.505Z,4.90
2022-12-03T19:03:08.324Z,4.70
2022-12-03T19:05:39.520Z,6.10
2022-12-03T19:08:17.070Z,4.00
2022-12-03T19:10:55.945Z,3.90
2022-12-03T19:13:28.727Z,4.40
2022-12-03T19:16:02.541Z,4.60
2022-12-03T19:18:34.397Z,3.30
2022-12-03T19:21:13.438Z,4.30
2022-12-03T19:24:15.972Z,5.10
2022-12-03T19:26:36.901Z,4.60
2022-12-03T19:29:09.630Z,5.80
2022-12-03T19:31:40.929Z,3.70
2022-12-03T19:34:12.011Z,4.70
2022-12-03T19:36:43.125Z,4.30
2022-12-03T19:39:15.571Z,5.00
2022-12-03T19:41:46.650Z,5.20
2022-12-03T19:44:19.036Z,4.20
2022-12-03T19:46:53.744Z,4.00
2022-12-03T19:49:24.755Z,4.50
2022-12-03T19:51:57.397Z,4.70
2022-12-03T19:54:29.451Z,4.40
2022-12-03T19:57:00.839Z,4.20
2022-12-03T19:59:32.879Z,5.30
2022-12-03T20:02:06.137Z,3.90
2022-12-03T20:04:38.468Z,4.70
2022-12-03T20:07:10.984Z,4.40
2022-12-03T20:09:43.141Z,4.60
2022-12-03T20:12:14.229Z,4.50
2022-12-03T20:14:46.656Z,4.40
2022-12-03T20:17:17.651Z,6.40
2022-12-03T20:19:49.361Z,6.20
2022-12-03T20:22:21.589Z,5.10
2022-12-03T20:24:52.643Z,4.80
2022-12-03T20:27:23.600Z,5.00
2022-12-03T20:29:55.683Z,4.70
2022-12-03T20:32:28.551Z,4.80
2022-12-03T20:34:59.780Z,5.60
2022-12-03T20:37:31.901Z,5.50
2022-12-03T20:40:02.822Z,4.50
2022-12-03T20:42:34.785Z,4.20
2022-12-03T20:45:07.252Z,4.40
2022-12-03T20:47:39.235Z,5.60
2022-12-03T20:50:13.395Z,4.60
2022-12-03T20:53:03.360Z,5.40
2022-12-03T20:55:37.591Z,4.90
2022-12-03T20:58:09.237Z,4.60
2022-12-03T21:00:41.310Z,4.50
2022-12-03T21:03:13.074Z,5.40
2022-12-03T21:05:45.181Z,5.10
2022-12-03T21:08:24.505Z,4.20
2022-12-03T21:13:44.395Z,4.70
2022-12-03T21:16:17.145Z,4.80
2022-12-03T21:18:49.350Z,5.20
2022-12-03T21:21:21.569Z,6.40
2022-12-03T21:23:53.610Z,4.50
2022-12-03T21:26:25.511Z,6.20
2022-12-03T21:28:56.810Z,4.20
2022-12-03T21:31:30.423Z,5.10
2022-12-03T21:36:32.110Z,11.60
2022-12-03T21:39:03.395Z,4.90
2022-12-03T21:41:35.257Z,4.20
2022-12-03T21:44:06.264Z,4.80
2022-12-03T21:47:09.832Z,4.70
2022-12-03T21:49:28.241Z,4.80
2022-12-03T21:51:59.337Z,4.80
2022-12-03T21:54:30.398Z,4.70
2022-12-03T21:57:01.220Z,4.90
2022-12-03T21:59:32.249Z,4.40
2022-12-03T22:02:03.434Z,3.90
2022-12-03T22:04:34.587Z,5.00
2022-12-03T22:07:06.210Z,4.20
2022-12-03T22:09:37.264Z,5.70
2022-12-03T22:12:09.010Z,4.90
2022-12-03T22:14:40.000Z,5.10
2022-12-03T22:17:10.809Z,5.00
2022-12-03T22:19:42.219Z,3.90
2022-12-03T22:22:13.057Z,4.20
2022-12-03T22:24:45.777Z,3.60
2022-12-03T22:27:16.897Z,5.50
2022-12-03T22:29:47.693Z,4.20
2022-12-03T22:32:18.764Z,4.60
2022-12-03T22:34:50.077Z,4.80
2022-12-03T22:37:21.370Z,4.90
2022-12-03T22:39:52.495Z,3.90
2022-12-03T22:42:23.612Z,4.80
2022-12-03T22:44:54.438Z,3.90
2022-12-03T22:47:25.200Z,4.20
2022-12-03T22:49:56.454Z,4.30
2022-12-03T22:52:27.479Z,4.00
2022-12-03T22:54:58.527Z,5.30
2022-12-03T22:57:29.848Z,4.70
2022-12-03T23:00:02.185Z,3.70
2022-12-03T23:02:33.756Z,4.40
2022-12-03T23:05:04.989Z,4.40
2022-12-03T23:07:35.835Z,4.20
2022-12-03T23:10:08.621Z,5.60
2022-12-03T23:12:39.990Z,4.50
2022-12-03T23:15:12.486Z,4.00
2022-12-03T23:17:43.749Z,4.30
2022-12-03T23:20:16.390Z,4.60
2022-12-03T23:22:48.647Z,4.30
2022-12-03T23:25:20.585Z,4.40
2022-12-03T23:27:51.496Z,4.30
2022-12-03T23:30:22.456Z,4.50
2022-12-03T23:32:57.100Z,4.50
2022-12-03T23:35:28.038Z,3.30
2022-12-03T23:37:58.993Z,4.40
2022-12-03T23:40:29.936Z,4.40
2022-12-03T23:43:00.789Z,3.70
2022-12-03T23:45:32.992Z,5.60
2022-12-03T23:48:04.206Z,4.50
2022-12-03T23:50:34.969Z,4.40
2022-12-03T23:53:05.713Z,4.80
2022-12-03T23:55:39.668Z,4.00
2022-12-03T23:58:10.284Z,4.30
